Strona główna
METAR-TAF:

METAR-TAF

Lotnisko :

Hazen, Dakota Północna, Stany Zjednoczone

Szerokość geograficzna: 47-17-24N, Długość geograficzna: 101-34-52W, wysokość: 553 m

Aktualna obserwacja pogody

Raport powstał 18 minut temu, godzina 18:55 UTC
Wiatr 6 kt od północno-północny zachód
Temperatura 20°C
Wilgotność 60%
Ciśnienie 1007 hPa
Widzialność: 16.1 km
bezchmurnie

METAR: KHZE 201855Z AUTO 34006KT 10SM CLR 20/12 A2974 RMK AO2

czas: 14:13 (19:13 UTC)


TAF: brakujący

Obserwacja i prognoza pogody dla ponad 4000 lotnisk (raport METAR i TAF).

Dostępne stacje oznaczono żółtymi i czerwonymi punktami na mapie.

Najedź kursorem aby zobaczyć nazwę stacji.

Kliknij aby zobaczyć obserwacje i prognozy pogody.

Aby zmienić mapę: kliknij na zielony przycisk z czarnym krzyżykiem, aby powiększyć; na zielony przycisk z myślnikiem, aby pomniejszyć; na zielone strzałki, aby przejść do map sąsiednich.


METAR-TAF: